Time;durP1;ratioP1;P1;durP2;ratioP2;P2;SDS_P1;SDS_P2;PMS_P1;PMS_P2;Temp;Humidity;BMP_temperature;BMP_pressure;BME280_temperature;BME280_humidity;BME280_pressure;Samples;Min_cycle;Max_cycle;Signal;HPM_P1;HPM_P2
2022/06/15 00:00:46;;;;;;;5.90;4.23;;;18.40;99.90;;;;;;5062438;28;20516;-86
2022/06/15 00:03:14;;;;;;;6.20;4.73;;;18.40;99.90;;;;;;5061018;28;20483;-85
2022/06/15 00:05:42;;;;;;;6.30;4.70;;;18.50;99.90;;;;;;5059322;28;21018;-87
2022/06/15 00:08:10;;;;;;;7.57;5.07;;;18.50;99.90;;;;;;5058844;28;20988;-87
2022/06/15 00:10:37;;;;;;;6.07;5.00;;;18.50;99.90;;;;;;5057478;28;20467;-86
2022/06/15 00:13:04;;;;;;;12.63;5.23;;;18.40;99.90;;;;;;5064740;28;20463;-85
2022/06/15 00:15:31;;;;;;;7.73;4.67;;;18.40;99.90;;;;;;5077561;28;20476;-87
2022/06/15 00:17:59;;;;;;;7.57;5.10;;;18.40;99.90;;;;;;5075015;28;20476;-88
2022/06/15 00:20:37;;;;;;;8.00;5.13;;;18.40;99.90;;;;;;5067709;28;20453;-87
2022/06/15 00:23:04;;;;;;;9.50;5.40;;;18.20;99.90;;;;;;5058722;28;21035;-87
2022/06/15 00:25:31;;;;;;;7.20;4.80;;;18.00;99.90;;;;;;5057814;28;20448;-85
2022/06/15 00:27:58;;;;;;;8.20;5.03;;;18.00;99.90;;;;;;5059869;28;20973;-85
2022/06/15 00:30:25;;;;;;;9.30;5.77;;;18.00;99.90;;;;;;5059957;28;20477;-84
2022/06/15 00:32:51;;;;;;;8.10;5.10;;;17.90;99.90;;;;;;5064269;28;20459;-85
2022/06/15 00:35:20;;;;;;;9.07;5.10;;;17.90;99.90;;;;;;5073236;28;20813;-87
2022/06/15 00:37:47;;;;;;;6.67;5.40;;;17.90;99.90;;;;;;5063232;28;21028;-87
2022/06/15 00:40:14;;;;;;;9.93;5.47;;;17.90;99.90;;;;;;5076077;28;20466;-85
2022/06/15 00:42:41;;;;;;;6.53;5.23;;;17.90;99.90;;;;;;5080933;28;20461;-85
2022/06/15 00:45:10;;;;;;;7.67;5.00;;;17.70;99.90;;;;;;5081095;28;20513;-86
2022/06/15 00:47:40;;;;;;;8.13;5.30;;;17.80;99.90;;;;;;5080280;28;20445;-85
2022/06/15 00:50:13;;;;;;;8.23;5.33;;;17.70;99.90;;;;;;5072669;28;20457;-86
2022/06/15 00:52:46;;;;;;;7.37;5.43;;;17.80;99.90;;;;;;5065518;28;20472;-86
2022/06/15 00:55:19;;;;;;;7.17;4.73;;;17.70;99.90;;;;;;5071282;28;20454;-87
2022/06/15 00:57:46;;;;;;;7.00;4.90;;;17.70;99.90;;;;;;5074460;28;20508;-87
2022/06/15 01:03:25;;;;;;;6.83;4.60;;;17.60;99.90;;;;;;5055436;28;20946;-87
2022/06/15 01:06:26;;;;;;;7.60;5.67;;;17.70;99.90;;;;;;5074703;28;20418;-86
2022/06/15 01:09:03;;;;;;;6.37;4.93;;;17.50;99.90;;;;;;5064962;28;20395;-87
2022/06/15 01:23:14;;;;;;;;;;;;;;;;;;;;;
2022/06/15 01:39:00;;;;;;;10.13;5.03;;;17.20;99.90;;;;;;4950124;28;20489;-87
2022/06/15 01:42:06;;;;;;;8.30;5.80;;;17.10;99.90;;;;;;5057193;28;21004;-87
2022/06/15 01:53:56;;;;;;;10.40;5.70;;;17.20;99.90;;;;;;5057879;28;20858;-87
2022/06/15 01:56:27;;;;;;;6.90;5.37;;;17.10;99.90;;;;;;5062078;28;20800;-87
2022/06/15 01:58:59;;;;;;;10.13;5.53;;;17.20;99.90;;;;;;5061066;28;20484;-88
2022/06/15 02:01:34;;;;;;;8.83;5.97;;;17.00;99.90;;;;;;5065289;28;20500;-87
2022/06/15 02:04:09;;;;;;;7.97;4.70;;;17.00;99.90;;;;;;5070245;28;20456;-85
2022/06/15 02:06:46;;;;;;;6.60;5.00;;;17.00;99.90;;;;;;5076868;28;20440;-85
2022/06/15 02:09:20;;;;;;;8.03;5.20;;;17.00;99.90;;;;;;5079566;28;20508;-83
2022/06/15 02:11:47;;;;;;;8.70;5.60;;;17.00;99.90;;;;;;5079039;28;20503;-86
2022/06/15 02:14:18;;;;;;;8.00;5.37;;;16.90;99.90;;;;;;5078430;28;20502;-86
2022/06/15 02:16:50;;;;;;;7.20;5.17;;;17.00;99.90;;;;;;5062011;28;20460;-86
2022/06/15 02:19:22;;;;;;;7.20;5.00;;;16.90;99.90;;;;;;5057333;28;20556;-86
2022/06/15 02:21:53;;;;;;;6.83;4.67;;;16.80;99.90;;;;;;5059402;28;20492;-86
2022/06/15 02:24:23;;;;;;;8.40;4.83;;;16.80;99.90;;;;;;5059484;28;20884;-86
2022/06/15 02:26:51;;;;;;;9.83;5.47;;;16.80;99.90;;;;;;5057832;28;20457;-86
2022/06/15 02:29:23;;;;;;;7.73;5.27;;;16.80;99.90;;;;;;5058111;28;20459;-86
2022/06/15 02:31:50;;;;;;;8.50;6.30;;;16.80;99.90;;;;;;5058368;28;20461;-85
2022/06/15 02:34:18;;;;;;;6.87;5.40;;;16.80;99.90;;;;;;5062478;28;20463;-86
2022/06/15 02:36:45;;;;;;;7.93;5.10;;;16.70;99.90;;;;;;5057344;28;20441;-86
2022/06/15 02:39:14;;;;;;;7.90;5.03;;;16.70;99.90;;;;;;5056989;28;20571;-86
2022/06/15 02:41:41;;;;;;;8.90;5.80;;;16.60;99.90;;;;;;5057383;28;20889;-86
2022/06/15 02:44:13;;;;;;;8.77;5.73;;;16.60;99.90;;;;;;5058268;28;20548;-86
2022/06/15 02:46:44;;;;;;;7.40;5.13;;;16.60;99.90;;;;;;5060557;28;20918;-86
2022/06/15 02:49:11;;;;;;;7.50;4.73;;;16.60;99.90;;;;;;5059409;28;20819;-86
2022/06/15 02:51:43;;;;;;;9.17;5.10;;;16.60;99.90;;;;;;5059059;28;20457;-86
2022/06/15 02:54:21;;;;;;;7.37;5.60;;;16.60;99.90;;;;;;5058962;28;20540;-86
2022/06/15 02:56:49;;;;;;;8.70;5.60;;;16.50;99.90;;;;;;5059436;28;20472;-86
2022/06/15 02:59:17;;;;;;;5.70;4.60;;;16.40;99.90;;;;;;5061090;28;20484;-86
2022/06/15 03:01:45;;;;;;;9.80;5.40;;;16.40;99.90;;;;;;5060469;28;20480;-86
2022/06/15 03:04:12;;;;;;;9.50;5.47;;;16.30;99.90;;;;;;5060843;28;20460;-86
2022/06/15 03:06:39;;;;;;;8.13;5.10;;;16.20;99.90;;;;;;5059994;28;20528;-86
2022/06/15 03:09:30;;;;;;;;;;;;;;;;;;;;;
2022/06/15 03:12:12;;;;;;;7.10;4.73;;;16.10;99.90;;;;;;5041866;28;20544;-86
2022/06/15 03:14:40;;;;;;;7.60;5.33;;;16.10;99.90;;;;;;5062098;28;20436;-88
2022/06/15 03:17:07;;;;;;;9.23;5.70;;;16.00;99.90;;;;;;5060435;28;20964;-88
2022/06/15 03:19:38;;;;;;;7.50;5.70;;;16.00;99.90;;;;;;5070910;28;20485;-88
2022/06/15 03:24:58;;;;;;;10.93;5.47;;;16.00;99.90;;;;;;5062196;28;20441;-88
2022/06/15 03:27:31;;;;;;;7.80;5.40;;;16.00;99.90;;;;;;5069084;28;20461;-88
2022/06/15 03:30:07;;;;;;;6.77;4.50;;;16.00;99.90;;;;;;5064671;28;20475;-87
2022/06/15 03:32:48;;;;;;;7.10;5.47;;;16.00;99.90;;;;;;5063418;28;20453;-88
2022/06/15 03:38:35;;;;;;;;;;;;;;;;;;;;;
2022/06/15 03:41:16;;;;;;;9.20;5.63;;;15.80;99.90;;;;;;5063645;28;20455;-86
2022/06/15 03:46:53;;;;;;;7.27;5.23;;;15.80;99.90;;;;;;5060519;28;20456;-88
2022/06/15 03:55:30;;;;;;;7.60;5.17;;;16.00;99.90;;;;;;5059516;28;20905;-87
2022/06/15 03:58:02;;;;;;;9.80;5.07;;;16.00;99.90;;;;;;5066111;28;21007;-87
2022/06/15 04:01:14;;;;;;;6.23;4.63;;;16.00;99.90;;;;;;5076822;28;20528;-86
2022/06/15 04:04:19;;;;;;;7.30;4.70;;;16.00;99.90;;;;;;5065306;28;20500;-86
2022/06/15 04:10:14;;;;;;;7.03;4.93;;;15.90;99.90;;;;;;5064749;28;20420;-88
2022/06/15 04:13:02;;;;;;;8.40;5.20;;;16.00;99.90;;;;;;4992565;28;20481;-88
2022/06/15 04:16:17;;;;;;;5.73;4.87;;;16.10;99.90;;;;;;4990867;28;20881;-87
2022/06/15 04:19:26;;;;;;;9.27;5.57;;;16.10;99.90;;;;;;4987684;28;20487;-87
2022/06/15 04:26:21;;;;;;;9.10;5.23;;;16.20;99.90;;;;;;5031409;28;20536;-87
2022/06/15 04:35:35;;;;;;;6.80;4.80;;;16.40;99.90;;;;;;5042577;22;20543;-83
2022/06/15 04:38:06;;;;;;;8.40;5.40;;;16.40;99.90;;;;;;5064546;28;20536;-82
2022/06/15 04:40:34;;;;;;;7.13;4.70;;;16.50;99.90;;;;;;5059376;28;20445;-83
2022/06/15 04:43:01;;;;;;;10.23;5.23;;;16.50;99.90;;;;;;5058064;28;20449;-83
2022/06/15 04:45:28;;;;;;;9.30;4.90;;;16.50;99.90;;;;;;5062501;28;20491;-83
2022/06/15 04:47:56;;;;;;;10.07;5.27;;;16.70;99.90;;;;;;5066329;28;20479;-83
2022/06/15 04:50:23;;;;;;;7.97;5.30;;;16.80;99.90;;;;;;5067118;28;20449;-83
2022/06/15 04:52:50;;;;;;;8.30;5.10;;;16.90;99.90;;;;;;5066182;28;20449;-83
2022/06/15 04:55:20;;;;;;;5.90;4.63;;;17.00;99.90;;;;;;5075122;28;20552;-83
2022/06/15 04:57:48;;;;;;;8.63;4.70;;;17.00;99.90;;;;;;5073990;28;20476;-83
2022/06/15 05:00:18;;;;;;;7.77;4.37;;;17.10;99.90;;;;;;5061813;28;20538;-82
2022/06/15 05:02:46;;;;;;;8.70;4.87;;;17.20;99.90;;;;;;5064026;28;20453;-82
2022/06/15 05:05:14;;;;;;;9.23;5.47;;;17.40;99.90;;;;;;5063544;28;20480;-82
2022/06/15 05:07:42;;;;;;;8.40;4.90;;;17.40;99.90;;;;;;5062631;28;20491;-81
2022/06/15 05:10:14;;;;;;;6.27;4.97;;;17.50;99.90;;;;;;5064197;28;20456;-80
2022/06/15 05:12:41;;;;;;;8.23;5.20;;;17.60;99.90;;;;;;5071725;28;20464;-82
2022/06/15 05:15:10;;;;;;;7.70;4.90;;;17.60;99.90;;;;;;5076912;28;20504;-83
2022/06/15 05:17:36;;;;;;;10.80;5.27;;;17.70;99.90;;;;;;5070351;28;20445;-83
2022/06/15 05:20:04;;;;;;;9.70;4.83;;;17.80;99.90;;;;;;5065027;28;20489;-84
2022/06/15 05:22:54;;;;;;;11.93;5.10;;;17.90;99.90;;;;;;5075327;28;20449;-85
2022/06/15 05:25:34;;;;;;;7.77;5.60;;;18.00;99.90;;;;;;5079103;28;20518;-84
2022/06/15 05:28:02;;;;;;;9.87;5.37;;;18.10;99.90;;;;;;5076318;28;20476;-83
2022/06/15 05:30:29;;;;;;;9.53;6.23;;;18.20;99.90;;;;;;5066342;28;20484;-83
2022/06/15 05:32:56;;;;;;;8.23;4.90;;;18.30;99.90;;;;;;5062863;28;20503;-83
2022/06/15 05:35:22;;;;;;;7.47;5.47;;;18.40;99.90;;;;;;5061726;28;20560;-84
2022/06/15 05:37:49;;;;;;;8.10;5.37;;;18.50;99.90;;;;;;5062550;28;20449;-84
2022/06/15 05:40:19;;;;;;;9.60;5.17;;;18.60;99.90;;;;;;5064230;28;20515;-83
2022/06/15 05:42:45;;;;;;;9.07;4.97;;;18.80;99.90;;;;;;5075527;28;20433;-83
2022/06/15 05:45:13;;;;;;;7.10;5.10;;;18.90;99.90;;;;;;5076647;28;20459;-83
2022/06/15 05:47:40;;;;;;;7.70;5.33;;;19.00;99.90;;;;;;5069061;28;20445;-85
2022/06/15 05:50:08;;;;;;;10.13;4.97;;;19.00;99.90;;;;;;5067541;28;20449;-85
2022/06/15 05:52:35;;;;;;;8.07;5.20;;;19.20;99.90;;;;;;5065777;28;20452;-86
2022/06/15 05:55:02;;;;;;;8.37;5.10;;;19.40;99.90;;;;;;5065621;28;20469;-85
2022/06/15 05:57:30;;;;;;;8.53;5.20;;;19.50;99.90;;;;;;5063989;28;20459;-85
2022/06/15 05:59:58;;;;;;;9.10;5.20;;;19.50;99.90;;;;;;5064511;28;20977;-85
2022/06/15 06:02:27;;;;;;;8.90;5.17;;;19.60;99.90;;;;;;5064858;28;20445;-84
2022/06/15 06:04:55;;;;;;;12.23;5.00;;;19.80;99.90;;;;;;5064837;28;20487;-84
2022/06/15 06:07:23;;;;;;;6.47;5.07;;;20.00;99.90;;;;;;5066944;28;20548;-84
2022/06/15 06:09:50;;;;;;;9.17;5.17;;;19.90;99.90;;;;;;5067043;28;20468;-84
2022/06/15 06:12:18;;;;;;;8.13;4.83;;;20.00;99.90;;;;;;5065901;28;20461;-84
2022/06/15 06:14:47;;;;;;;7.63;5.40;;;20.10;99.90;;;;;;5066334;28;20476;-85
2022/06/15 06:17:13;;;;;;;8.30;4.60;;;20.20;99.90;;;;;;5066431;28;20471;-86
2022/06/15 06:19:40;;;;;;;7.10;5.20;;;20.40;99.90;;;;;;5067658;28;20559;-84
2022/06/15 06:22:08;;;;;;;10.37;4.53;;;20.50;99.90;;;;;;5068677;28;20448;-84
2022/06/15 06:24:34;;;;;;;7.87;5.20;;;20.60;99.90;;;;;;5067671;28;20529;-85
2022/06/15 06:27:03;;;;;;;6.70;4.83;;;20.70;99.90;;;;;;5068079;28;20445;-85
2022/06/15 06:29:31;;;;;;;8.13;4.73;;;20.90;99.90;;;;;;5070430;28;20457;-85
2022/06/15 06:32:00;;;;;;;10.37;4.67;;;21.00;99.90;;;;;;5070038;28;20456;-84
2022/06/15 06:34:29;;;;;;;7.40;5.03;;;21.10;99.90;;;;;;5070490;28;20595;-83
2022/06/15 06:36:56;;;;;;;11.23;5.73;;;21.20;99.80;;;;;;5066445;28;20488;-85
2022/06/15 06:39:26;;;;;;;7.50;4.70;;;21.30;99.80;;;;;;5067680;28;20484;-84
2022/06/15 06:41:53;;;;;;;7.13;4.40;;;21.50;99.20;;;;;;5067179;28;20448;-85
2022/06/15 06:44:20;;;;;;;8.30;4.80;;;21.50;98.40;;;;;;5068231;28;20834;-85
2022/06/15 06:46:49;;;;;;;7.20;4.90;;;21.60;98.10;;;;;;5068575;28;20457;-85
2022/06/15 06:49:19;;;;;;;8.10;5.23;;;21.60;97.80;;;;;;5068876;28;20512;-84
2022/06/15 06:51:48;;;;;;;11.73;4.43;;;21.70;97.20;;;;;;5066549;28;20541;-84
2022/06/15 06:54:17;;;;;;;7.90;4.70;;;21.70;96.80;;;;;;5068620;28;20476;-85
2022/06/15 06:56:44;;;;;;;8.90;4.27;;;21.70;97.20;;;;;;5078115;28;20429;-86
2022/06/15 06:59:14;;;;;;;8.07;4.23;;;21.70;96.90;;;;;;5077930;28;20536;-87
2022/06/15 07:01:43;;;;;;;9.80;4.33;;;21.70;97.10;;;;;;5078042;28;20516;-86
2022/06/15 07:04:12;;;;;;;6.30;4.57;;;21.80;97.20;;;;;;5077438;28;20469;-84
2022/06/15 07:06:41;;;;;;;6.50;4.03;;;21.80;96.90;;;;;;5066720;28;20441;-85
2022/06/15 07:09:08;;;;;;;7.63;4.93;;;21.90;97.10;;;;;;5063867;28;20543;-85
2022/06/15 07:11:37;;;;;;;8.87;4.80;;;22.00;96.70;;;;;;5063797;28;20453;-84
2022/06/15 07:14:05;;;;;;;6.50;4.23;;;22.10;96.60;;;;;;5064022;28;20473;-83
2022/06/15 07:16:32;;;;;;;7.07;4.70;;;22.20;96.30;;;;;;5063579;28;20451;-83
2022/06/15 07:18:59;;;;;;;7.63;4.73;;;22.30;96.50;;;;;;5062049;28;20520;-83
2022/06/15 07:21:28;;;;;;;8.50;4.60;;;22.30;96.00;;;;;;5064062;28;20528;-85
2022/06/15 07:23:58;;;;;;;15.03;5.50;;;22.40;96.20;;;;;;5069828;28;20434;-85
2022/06/15 07:26:27;;;;;;;11.67;4.80;;;22.40;95.80;;;;;;5075060;28;20445;-84
2022/06/15 07:28:54;;;;;;;6.33;4.60;;;22.40;95.40;;;;;;5065765;28;20445;-85
2022/06/15 07:31:24;;;;;;;11.63;4.90;;;22.50;95.70;;;;;;5064005;28;20452;-85
2022/06/15 07:33:51;;;;;;;10.53;5.23;;;22.60;95.60;;;;;;5063817;28;20536;-84
2022/06/15 07:36:18;;;;;;;10.73;4.70;;;22.70;95.50;;;;;;5066846;28;20429;-83
2022/06/15 07:38:45;;;;;;;10.00;5.00;;;22.90;95.30;;;;;;5066958;28;20950;-83
2022/06/15 07:41:14;;;;;;;6.57;4.70;;;22.90;95.50;;;;;;5068055;28;20476;-83
2022/06/15 07:43:41;;;;;;;8.07;4.63;;;23.00;95.30;;;;;;5068851;28;20458;-84
2022/06/15 07:46:09;;;;;;;7.87;5.53;;;23.00;95.20;;;;;;5069733;28;20555;-84
2022/06/15 07:51:29;;;;;;;7.67;4.67;;;23.30;95.20;;;;;;5068020;28;20925;-84
2022/06/15 07:53:57;;;;;;;9.53;6.13;;;23.40;94.90;;;;;;5067855;28;20441;-84
2022/06/15 07:56:26;;;;;;;10.30;4.40;;;23.40;94.50;;;;;;5066134;28;20457;-84
2022/06/15 07:58:53;;;;;;;7.97;4.70;;;23.40;94.60;;;;;;5065299;28;20964;-84
2022/06/15 08:01:20;;;;;;;8.27;4.77;;;23.40;94.50;;;;;;5066666;28;20602;-84
2022/06/15 08:03:47;;;;;;;7.50;4.70;;;23.50;94.70;;;;;;5066402;28;20461;-83
2022/06/15 08:06:15;;;;;;;7.97;5.03;;;23.60;94.50;;;;;;5065989;28;20830;-84
2022/06/15 08:08:43;;;;;;;14.87;5.70;;;23.60;94.30;;;;;;5066142;28;20485;-84
2022/06/15 08:11:10;;;;;;;9.63;4.77;;;23.70;94.20;;;;;;5065097;28;20445;-84
2022/06/15 08:13:38;;;;;;;7.23;5.03;;;23.80;94.20;;;;;;5069029;28;20452;-84
2022/06/15 08:16:06;;;;;;;7.77;5.00;;;23.90;94.10;;;;;;5080901;28;20489;-84
2022/06/15 08:18:39;;;;;;;8.53;4.90;;;24.00;94.00;;;;;;5079781;28;20468;-83
2022/06/15 08:21:12;;;;;;;8.33;4.87;;;24.00;93.70;;;;;;5075851;28;20518;-83
2022/06/15 08:23:43;;;;;;;12.00;5.50;;;24.10;93.70;;;;;;5068306;28;20440;-84
2022/06/15 08:26:13;;;;;;;12.73;4.50;;;24.20;93.50;;;;;;5071688;28;20445;-84
2022/06/15 08:28:46;;;;;;;11.33;5.27;;;24.30;93.50;;;;;;5073726;28;20488;-83
2022/06/15 08:31:13;;;;;;;9.97;5.10;;;24.30;93.40;;;;;;5067121;28;20468;-86
2022/06/15 08:33:40;;;;;;;17.00;5.67;;;24.30;93.20;;;;;;5063845;28;20488;-85
2022/06/15 08:36:10;;;;;;;8.23;5.10;;;24.30;93.10;;;;;;5064401;28;20545;-85
2022/06/15 08:38:37;;;;;;;8.27;5.57;;;24.40;93.50;;;;;;5066248;28;20449;-84
2022/06/15 08:41:07;;;;;;;9.30;5.03;;;24.40;93.10;;;;;;5062306;28;20937;-82
2022/06/15 08:43:52;;;;;;;8.80;5.30;;;24.40;92.70;;;;;;5067943;28;20445;-83
2022/06/15 08:46:27;;;;;;;7.20;4.67;;;24.40;92.40;;;;;;5072031;28;20474;-79
2022/06/15 08:49:07;;;;;;;8.73;5.40;;;24.30;92.30;;;;;;5067447;28;20487;-84
2022/06/15 08:51:39;;;;;;;8.30;5.07;;;24.30;92.80;;;;;;5069248;28;20974;-82
2022/06/15 08:54:10;;;;;;;8.73;5.33;;;24.40;92.20;;;;;;5066166;28;20479;-84
2022/06/15 08:56:41;;;;;;;7.77;4.87;;;24.40;91.90;;;;;;5070919;28;20540;-85
2022/06/15 08:59:25;;;;;;;6.20;5.10;;;24.50;92.00;;;;;;5073444;28;20448;-82
2022/06/15 09:02:01;;;;;;;8.43;5.53;;;24.60;91.90;;;;;;5075997;28;20458;-83
2022/06/15 09:04:36;;;;;;;8.67;5.40;;;24.80;91.70;;;;;;5075613;28;20469;-81
2022/06/15 09:07:20;;;;;;;18.63;5.17;;;24.90;91.40;;;;;;5075245;28;20428;-81
2022/06/15 09:10:02;;;;;;;6.90;4.90;;;25.10;91.30;;;;;;5070009;28;20491;-82
2022/06/15 09:12:53;;;;;;;11.03;5.70;;;25.10;90.70;;;;;;5072091;28;20433;-82
2022/06/15 09:15:31;;;;;;;10.20;5.80;;;25.10;90.80;;;;;;5065770;28;20473;-82
2022/06/15 09:18:00;;;;;;;14.13;5.67;;;25.20;90.90;;;;;;5066544;28;20595;-83
2022/06/15 09:20:33;;;;;;;7.60;5.50;;;25.30;90.80;;;;;;5064908;28;20827;-83
2022/06/15 09:23:06;;;;;;;9.10;4.90;;;25.30;90.50;;;;;;5064812;28;20487;-82
2022/06/15 09:25:38;;;;;;;10.13;4.97;;;25.40;90.40;;;;;;5063166;28;20556;-83
2022/06/15 09:28:09;;;;;;;7.00;5.37;;;25.50;90.10;;;;;;5067498;28;20422;-84
2022/06/15 09:30:41;;;;;;;10.57;5.87;;;25.60;90.10;;;;;;5079332;28;20492;-83
2022/06/15 09:33:13;;;;;;;10.13;5.57;;;25.60;89.80;;;;;;5079312;28;20464;-82
2022/06/15 09:35:46;;;;;;;6.47;4.90;;;25.40;90.00;;;;;;5076030;28;20485;-82
2022/06/15 09:38:15;;;;;;;6.83;4.50;;;25.40;90.10;;;;;;5068951;28;20499;-83
2022/06/15 09:40:50;;;;;;;8.00;4.90;;;25.40;90.30;;;;;;5067925;28;20481;-82
2022/06/15 09:43:29;;;;;;;6.77;5.47;;;25.50;89.70;;;;;;5063613;28;20439;-82
2022/06/15 09:46:05;;;;;;;9.93;5.10;;;25.60;88.10;;;;;;5062252;28;20552;-82
2022/06/15 09:48:45;;;;;;;7.20;5.10;;;25.70;87.10;;;;;;5060176;28;20532;-82
2022/06/15 09:51:20;;;;;;;7.10;4.90;;;25.90;86.70;;;;;;5058747;28;20433;-83
2022/06/15 09:53:56;;;;;;;7.90;5.00;;;26.10;86.20;;;;;;5061536;28;20604;-81
2022/06/15 09:56:25;;;;;;;7.37;4.73;;;26.20;85.50;;;;;;5061782;28;20475;-82
2022/06/15 09:58:57;;;;;;;8.97;5.40;;;26.30;85.00;;;;;;5062705;28;20898;-83
2022/06/15 10:01:30;;;;;;;8.43;5.20;;;26.40;84.50;;;;;;5062410;28;20473;-83
2022/06/15 10:03:59;;;;;;;13.70;5.83;;;26.50;83.00;;;;;;5061815;28;20487;-83
2022/06/15 10:06:32;;;;;;;6.87;4.47;;;26.60;82.30;;;;;;5060305;28;20453;-82
2022/06/15 10:09:01;;;;;;;8.13;5.33;;;26.50;81.30;;;;;;5060816;28;20433;-83
2022/06/15 10:11:34;;;;;;;8.17;5.47;;;26.40;81.40;;;;;;5069019;28;20505;-83
2022/06/15 10:14:17;;;;;;;8.60;5.20;;;26.40;81.00;;;;;;5064299;28;20779;-83
2022/06/15 10:16:53;;;;;;;6.27;4.80;;;26.40;81.10;;;;;;5061759;28;20981;-81
2022/06/15 10:19:21;;;;;;;8.33;5.70;;;26.50;80.70;;;;;;5061626;28;20464;-82
2022/06/15 10:21:53;;;;;;;8.23;5.30;;;26.50;80.20;;;;;;5063442;28;20499;-83
2022/06/15 10:24:24;;;;;;;7.80;5.37;;;26.60;80.20;;;;;;5065419;28;20561;-83
2022/06/15 10:27:13;;;;;;;7.30;5.17;;;26.70;80.00;;;;;;5061688;28;20499;-81
2022/06/15 10:29:40;;;;;;;10.43;6.20;;;26.80;80.10;;;;;;5066093;28;20480;-82
2022/06/15 10:32:20;;;;;;;7.37;4.83;;;26.90;78.80;;;;;;5071173;28;20447;-82
2022/06/15 10:34:54;;;;;;;12.83;5.90;;;26.90;78.20;;;;;;5066309;28;20484;-82
2022/06/15 10:37:25;;;;;;;7.60;5.00;;;27.00;77.80;;;;;;5064705;28;20445;-83
2022/06/15 10:39:58;;;;;;;9.73;5.57;;;27.10;77.20;;;;;;5062349;28;20436;-82
2022/06/15 10:42:32;;;;;;;10.87;5.80;;;27.10;76.90;;;;;;5062942;28;20521;-82
2022/06/15 10:45:01;;;;;;;10.40;5.70;;;27.20;76.20;;;;;;5062633;28;20528;-82
2022/06/15 10:47:39;;;;;;;7.83;5.47;;;27.30;76.20;;;;;;5063407;28;20414;-82
2022/06/15 10:50:17;;;;;;;9.00;6.40;;;27.30;75.40;;;;;;5061510;28;20463;-81
2022/06/15 10:52:50;;;;;;;10.40;5.50;;;27.40;74.30;;;;;;5061732;28;20481;-83
2022/06/15 11:04:11;;;;;;;8.00;4.70;;;27.50;70.50;;;;;;5065922;28;20468;-83
2022/06/15 11:06:41;;;;;;;9.10;5.40;;;27.60;68.90;;;;;;5069602;28;20433;-83
2022/06/15 11:09:18;;;;;;;8.83;4.20;;;27.60;67.30;;;;;;5064458;28;20449;-83
2022/06/15 11:11:45;;;;;;;7.37;4.63;;;27.40;64.70;;;;;;5059569;28;20422;-82
2022/06/15 11:14:19;;;;;;;5.50;3.87;;;27.30;64.70;;;;;;5076741;28;20461;-83
2022/06/15 11:19:40;;;;;;;7.70;4.80;;;27.40;63.50;;;;;;5063110;28;20745;-83
2022/06/15 11:22:14;;;;;;;7.93;5.20;;;27.50;64.50;;;;;;5060100;28;20483;-83
2022/06/15 11:24:48;;;;;;;6.70;5.23;;;27.60;66.30;;;;;;5061125;28;20480;-82
2022/06/15 11:27:24;;;;;;;7.10;4.70;;;27.90;67.30;;;;;;5059496;28;20438;-83
2022/06/15 11:29:55;;;;;;;6.60;5.53;;;28.10;66.40;;;;;;5076115;28;20438;-83
2022/06/15 11:32:35;;;;;;;11.33;6.27;;;28.10;66.80;;;;;;5077056;28;20441;-83
2022/06/15 11:35:22;;;;;;;6.80;4.77;;;28.10;64.80;;;;;;5072178;28;20511;-84
2022/06/15 11:37:53;;;;;;;6.57;4.97;;;28.20;63.70;;;;;;5065151;28;20449;-83
2022/06/15 11:40:27;;;;;;;8.20;5.03;;;28.10;65.40;;;;;;5062527;28;20473;-84
2022/06/15 11:42:55;;;;;;;6.00;4.80;;;28.00;65.10;;;;;;5062499;28;20512;-83
2022/06/15 11:45:30;;;;;;;6.80;4.50;;;28.10;64.80;;;;;;5061811;28;20473;-83
2022/06/15 11:48:10;;;;;;;6.20;4.70;;;28.10;63.50;;;;;;5064045;28;20523;-83
2022/06/15 11:50:47;;;;;;;6.67;5.40;;;28.20;64.00;;;;;;5072151;28;20513;-84
2022/06/15 11:53:25;;;;;;;7.07;4.53;;;28.30;64.20;;;;;;5061170;28;20441;-84
2022/06/15 11:55:59;;;;;;;6.53;4.43;;;28.20;63.10;;;;;;5060626;28;20531;-83
2022/06/15 11:58:41;;;;;;;7.40;4.50;;;28.20;62.30;;;;;;5061046;28;20993;-83
2022/06/15 12:01:17;;;;;;;6.10;4.43;;;28.30;63.10;;;;;;5060988;28;20464;-83
2022/06/15 12:04:33;;;;;;;6.43;4.47;;;28.40;62.70;;;;;;5060929;28;20440;-83
2022/06/15 12:07:14;;;;;;;9.00;4.97;;;28.50;61.40;;;;;;5060528;28;20461;-83
2022/06/15 12:09:51;;;;;;;8.57;4.60;;;28.50;61.60;;;;;;5062003;28;20428;-83
2022/06/15 12:12:40;;;;;;;7.00;3.93;;;28.60;61.40;;;;;;5064319;28;20516;-83
2022/06/15 12:15:28;;;;;;;5.40;3.97;;;28.70;59.50;;;;;;5061699;28;20989;-83
2022/06/15 12:18:01;;;;;;;6.50;4.50;;;28.60;58.70;;;;;;5064210;28;20429;-84
2022/06/15 12:20:41;;;;;;;6.00;4.53;;;28.50;59.20;;;;;;5063752;28;20433;-83
2022/06/15 12:23:23;;;;;;;6.00;4.13;;;28.40;59.50;;;;;;5064034;28;20535;-84
2022/06/15 12:26:02;;;;;;;8.60;4.80;;;28.50;59.30;;;;;;5064842;28;20472;-83
2022/06/15 12:28:40;;;;;;;7.20;4.10;;;28.60;59.60;;;;;;5063822;28;20477;-84
2022/06/15 12:31:23;;;;;;;7.40;4.50;;;28.60;59.40;;;;;;5064902;28;20432;-84
2022/06/15 12:33:58;;;;;;;5.23;3.83;;;28.70;59.30;;;;;;5071326;28;20457;-83
2022/06/15 12:36:32;;;;;;;5.53;4.00;;;28.80;58.80;;;;;;5068897;28;20783;-83
2022/06/15 12:39:09;;;;;;;7.20;4.50;;;28.60;59.40;;;;;;5068449;28;20512;-84
2022/06/15 12:44:27;;;;;;;6.07;4.60;;;28.60;59.70;;;;;;5069360;28;20472;-83
2022/06/15 12:46:55;;;;;;;5.70;4.17;;;28.60;59.70;;;;;;5070812;28;20486;-84
2022/06/15 12:49:31;;;;;;;9.60;4.50;;;28.60;57.50;;;;;;5070142;28;20452;-83
2022/06/15 12:52:09;;;;;;;6.77;4.40;;;28.60;57.70;;;;;;5077584;28;20504;-82
2022/06/15 12:54:52;;;;;;;6.37;4.80;;;28.90;57.70;;;;;;5079841;28;20472;-82
2022/06/15 12:57:27;;;;;;;7.20;4.50;;;29.00;57.80;;;;;;5070218;28;20429;-85
2022/06/15 13:00:01;;;;;;;8.67;4.63;;;29.00;57.40;;;;;;5062484;28;20429;-85
2022/06/15 13:02:37;;;;;;;7.03;4.40;;;29.00;57.20;;;;;;5062282;28;20568;-85
2022/06/15 13:05:13;;;;;;;6.47;4.40;;;29.10;56.90;;;;;;5063883;28;20555;-83
2022/06/15 13:07:42;;;;;;;6.63;4.60;;;29.20;57.10;;;;;;5086478;22;20491;-84
2022/06/15 13:10:21;;;;;;;8.07;4.60;;;29.20;56.60;;;;;;5045216;28;20557;-85
2022/06/15 13:12:51;;;;;;;5.60;4.63;;;29.20;56.10;;;;;;5042243;28;20429;-85
2022/06/15 13:15:24;;;;;;;8.20;4.20;;;29.20;56.40;;;;;;5041723;28;20466;-86
2022/06/15 13:18:08;;;;;;;9.17;4.23;;;29.30;56.40;;;;;;5040874;28;20536;-86
2022/06/15 13:20:58;;;;;;;7.07;4.83;;;29.40;56.10;;;;;;5042083;28;20445;-85
2022/06/15 13:23:28;;;;;;;8.73;4.70;;;29.40;55.80;;;;;;5044039;28;20458;-84
2022/06/15 13:25:59;;;;;;;7.13;4.17;;;29.50;56.20;;;;;;5043282;28;20448;-86
2022/06/15 13:28:29;;;;;;;10.20;5.00;;;29.50;55.80;;;;;;5051139;28;20561;-87
2022/06/15 13:30:58;;;;;;;6.00;4.83;;;29.60;55.60;;;;;;5044092;28;20540;-86
2022/06/15 13:33:58;;;;;;;8.33;4.50;;;29.70;55.70;;;;;;5043631;28;20485;-86
2022/06/15 13:36:25;;;;;;;8.10;5.00;;;29.70;55.10;;;;;;5044149;28;20460;-86
2022/06/15 13:38:53;;;;;;;9.30;4.77;;;29.70;54.90;;;;;;5042268;28;20494;-86
2022/06/15 13:41:31;;;;;;;8.20;4.67;;;29.70;54.80;;;;;;5042450;28;20488;-86
2022/06/15 13:44:16;;;;;;;6.77;4.80;;;29.80;55.10;;;;;;5041729;28;20472;-85
2022/06/15 13:46:49;;;;;;;10.20;4.73;;;29.90;55.40;;;;;;5041603;28;20441;-84
2022/06/15 13:49:25;;;;;;;10.93;4.50;;;30.00;55.20;;;;;;5042319;28;20497;-84
2022/06/15 13:51:56;;;;;;;7.30;6.50;;;29.90;54.80;;;;;;5045581;28;20891;-85
2022/06/15 13:54:45;;;;;;;8.93;7.37;;;29.80;55.60;;;;;;5051983;28;20442;-86
2022/06/15 13:57:24;;;;;;;10.07;4.53;;;30.10;55.10;;;;;;5047494;28;20473;-86
2022/06/15 14:00:02;;;;;;;8.60;4.80;;;30.30;54.30;;;;;;5043870;28;20555;-86
2022/06/15 14:02:46;;;;;;;9.80;5.40;;;30.60;54.20;;;;;;5042298;28;20470;-85
2022/06/15 14:05:46;;;;;;;7.20;4.67;;;30.80;54.60;;;;;;5041054;28;20442;-86
2022/06/15 14:08:29;;;;;;;5.40;4.20;;;30.90;53.10;;;;;;5056025;28;20530;-84
2022/06/15 14:11:07;;;;;;;10.03;4.13;;;30.90;52.60;;;;;;5056676;28;20481;-85
2022/06/15 14:13:51;;;;;;;11.70;4.53;;;30.70;52.80;;;;;;5042309;28;20444;-87
2022/06/15 14:16:52;;;;;;;7.07;4.60;;;30.80;53.30;;;;;;5041440;28;20504;-86
2022/06/15 14:19:29;;;;;;;6.90;4.63;;;31.10;53.00;;;;;;5041966;28;20473;-85
2022/06/15 14:22:06;;;;;;;7.90;5.17;;;30.90;52.60;;;;;;5039915;28;20473;-85
2022/06/15 14:24:34;;;;;;;7.80;4.77;;;30.80;53.00;;;;;;5040959;28;20492;-85
2022/06/15 14:27:03;;;;;;;8.97;4.63;;;31.00;53.40;;;;;;5040185;28;20505;-85
2022/06/15 14:29:36;;;;;;;6.73;4.70;;;31.40;53.00;;;;;;5040924;28;20470;-84
2022/06/15 14:32:07;;;;;;;6.03;4.47;;;31.50;52.10;;;;;;5042646;28;20807;-85
2022/06/15 14:34:40;;;;;;;5.47;4.20;;;31.60;52.30;;;;;;5039683;28;20445;-86
2022/06/15 14:37:22;;;;;;;8.43;4.83;;;31.60;51.80;;;;;;5044811;28;20422;-85
2022/06/15 14:39:52;;;;;;;8.70;5.63;;;31.90;51.40;;;;;;5040054;28;20461;-86
2022/06/15 14:42:22;;;;;;;7.60;4.60;;;32.20;51.70;;;;;;5041467;28;20493;-86